createdAt,value
2019-04-25T00:02:02.123Z,67
2019-04-25T00:07:02.484Z,69.9
2019-04-25T00:12:02.507Z,70.7
2019-04-25T00:17:02.000Z,72.3
2019-04-25T00:22:02.277Z,71.1
2019-04-25T00:27:02.419Z,73.2
2019-04-25T00:32:01.947Z,72.8
2019-04-25T00:37:02.842Z,74.9
2019-04-25T00:42:02.631Z,75.7
2019-04-25T00:47:02.691Z,75.5
2019-04-25T00:52:02.290Z,74.6
2019-04-25T00:57:02.411Z,75.1
2019-04-25T01:02:01.917Z,76.5
2019-04-25T01:07:01.684Z,76.5
2019-04-25T01:12:04.199Z,77.5
2019-04-25T01:17:03.079Z,77.3
2019-04-25T01:22:03.950Z,77.4
2019-04-25T01:27:05.414Z,77.6
2019-04-25T01:32:04.467Z,77.7
2019-04-25T01:37:04.404Z,77.3
2019-04-25T01:42:05.398Z,78.3
2019-04-25T01:47:04.810Z,78.1
2019-04-25T01:52:04.273Z,77.3
2019-04-25T01:57:04.594Z,78.1
2019-04-25T02:02:06.961Z,79.1
2019-04-25T02:07:05.960Z,78.8
2019-04-25T02:12:05.638Z,78.6
2019-04-25T02:17:05.391Z,79
2019-04-25T02:22:04.823Z,79.6
2019-04-25T02:27:04.903Z,79.8
2019-04-25T02:32:09.346Z,78
2019-04-25T02:37:09.804Z,79.9
2019-04-25T02:42:09.050Z,80.2
2019-04-25T02:47:08.686Z,80
2019-04-25T02:52:17.635Z,80.8
2019-04-25T02:57:16.114Z,80.7
2019-04-25T03:02:15.932Z,79.8
2019-04-25T03:07:17.909Z,79.9
2019-04-25T03:12:35.947Z,81.4
2019-04-25T03:17:34.510Z,81
2019-04-25T03:22:34.880Z,81.6
2019-04-25T03:27:34.255Z,81.2
2019-04-25T03:32:35.866Z,81.6
2019-04-25T03:37:35.523Z,81.9
2019-04-25T03:42:34.991Z,82
2019-04-25T03:47:34.822Z,81.8
2019-04-25T03:52:35.153Z,81.3
2019-04-25T03:57:35.004Z,80.5
2019-04-25T04:02:34.809Z,80.3
2019-04-25T04:07:35.006Z,78.3
2019-04-25T04:12:35.816Z,76.8
2019-04-25T04:17:36.105Z,74
2019-04-25T04:22:36.770Z,70.4
2019-04-25T04:27:37.097Z,64.7
2019-04-25T04:32:37.113Z,63.4
2019-04-25T04:37:37.534Z,63.3
2019-04-25T04:42:37.852Z,57.5
2019-04-25T04:47:37.723Z,60.1
2019-04-25T04:52:37.689Z,59
2019-04-25T04:57:37.739Z,57.1
2019-04-25T05:02:37.440Z,57.5
2019-04-25T05:07:36.632Z,57.7
2019-04-25T05:12:36.304Z,58.7
2019-04-25T05:17:36.606Z,60.7
2019-04-25T05:22:37.278Z,55.4
2019-04-25T05:28:02.419Z,52.7
2019-04-25T05:32:59.435Z,53
2019-04-25T05:37:59.144Z,52.3
2019-04-25T05:42:59.363Z,52.3
2019-04-25T05:47:59.922Z,48.9
2019-04-25T05:52:59.188Z,51
2019-04-25T05:57:58.567Z,53.7
2019-04-25T06:02:58.868Z,50.2
2019-04-25T06:07:58.504Z,53.4
2019-04-25T06:12:57.686Z,52.6
2019-04-25T06:17:57.951Z,53.7
2019-04-25T06:22:58.628Z,51.2
2019-04-25T06:27:59.467Z,51.6
2019-04-25T06:32:58.754Z,52.1
2019-04-25T06:37:58.783Z,52
2019-04-25T06:42:59.257Z,52.4
2019-04-25T06:47:58.450Z,50
2019-04-25T12:07:46.710Z,35.7
2019-04-25T12:12:47.597Z,34.8
2019-04-25T12:17:47.605Z,32.8
2019-04-25T12:22:48.218Z,31.8
2019-04-25T12:27:51.320Z,34.3
2019-04-25T12:32:50.828Z,35
2019-04-25T12:37:50.459Z,35.7
2019-04-25T12:42:50.135Z,35.6
2019-04-25T12:47:50.679Z,36.5
2019-04-25T12:52:50.908Z,36.1
2019-04-25T12:57:51.365Z,35.5
2019-04-25T13:02:50.143Z,38.7
2019-04-25T13:07:49.315Z,38.4
2019-04-25T13:12:48.983Z,38.4
2019-04-25T13:17:48.622Z,38.1
2019-04-25T13:22:48.140Z,39.9
2019-04-25T13:27:48.159Z,37.6
2019-04-25T13:32:48.340Z,38.2
2019-04-25T13:37:48.041Z,37.9
2019-04-25T13:42:47.551Z,37.8
2019-04-25T13:47:47.315Z,36.9
2019-04-25T13:52:46.741Z,37.1
2019-04-25T13:57:45.934Z,39.5
2019-04-25T14:02:45.316Z,39.2
2019-04-25T14:07:44.593Z,40
2019-04-25T14:12:44.433Z,40.4
2019-04-25T14:17:45.040Z,41.4
2019-04-25T14:22:45.633Z,39.7
2019-04-25T14:27:45.078Z,40.1
2019-04-25T14:32:44.953Z,41.5
2019-04-25T14:37:44.595Z,41.4
2019-04-25T14:42:43.990Z,41.3
2019-04-25T14:47:43.706Z,41.7
2019-04-25T14:52:42.907Z,41.8
2019-04-25T14:57:42.328Z,41.6
2019-04-25T15:02:41.981Z,41.8
2019-04-25T15:07:41.430Z,43.3
2019-04-25T15:12:40.768Z,42.9
2019-04-25T15:17:46.919Z,43
2019-04-25T15:22:45.502Z,43.9
2019-04-25T15:27:45.126Z,46.2
2019-04-25T15:32:44.271Z,45.7
2019-04-25T15:37:43.895Z,45.8
2019-04-25T15:42:43.797Z,45.2
2019-04-25T15:47:45.723Z,46.9
2019-04-25T15:52:45.249Z,46.2
2019-04-25T15:57:44.933Z,45.1
2019-04-25T16:02:44.492Z,48.4
2019-04-25T16:07:44.200Z,49.9
2019-04-25T16:12:43.704Z,50.6
2019-04-25T16:17:43.045Z,49.2
2019-04-25T16:22:42.812Z,47.7
2019-04-25T16:27:42.472Z,48.5
2019-04-25T16:32:41.998Z,48.6
2019-04-25T16:37:41.581Z,47
2019-04-25T16:42:41.952Z,48.7
2019-04-25T16:47:42.083Z,47.4
2019-04-25T16:52:42.560Z,52
2019-04-25T16:57:42.194Z,52.8
2019-04-25T17:02:42.617Z,55.4
2019-04-25T17:07:42.711Z,54.9
2019-04-25T17:12:42.093Z,53.2
2019-04-25T17:17:41.786Z,53
2019-04-25T17:22:41.732Z,53.1
2019-04-25T17:27:41.422Z,52.9
2019-04-25T17:32:54.099Z,50.4
2019-04-25T17:37:51.915Z,50.4
2019-04-25T17:42:51.491Z,50.6
2019-04-25T17:47:55.090Z,50.5
2019-04-25T17:52:54.114Z,50.8
2019-04-25T17:57:53.723Z,50.2
2019-04-25T18:02:59.277Z,51
2019-04-25T18:07:57.937Z,51.1
2019-04-25T18:12:57.478Z,51
2019-04-25T18:17:57.257Z,50.4
2019-04-25T18:22:56.907Z,50.4
2019-04-25T18:27:56.539Z,51.4
2019-04-25T18:32:55.946Z,52
2019-04-25T18:37:55.504Z,52.4
2019-04-25T18:42:55.292Z,52.3
2019-04-25T18:47:55.068Z,52
2019-04-25T18:52:54.664Z,52.3
2019-04-25T18:57:54.465Z,51.9
2019-04-25T19:02:54.221Z,54.6
2019-04-25T19:07:53.726Z,53.6
2019-04-25T19:12:53.379Z,54.5
2019-04-25T19:17:52.661Z,55.3
2019-04-25T19:22:52.833Z,56.2
2019-04-25T19:27:52.280Z,57.2
2019-04-25T19:32:52.013Z,57.2
2019-04-25T19:37:51.694Z,57.2
2019-04-25T19:42:51.528Z,57.6
2019-04-25T19:47:51.717Z,57.7
2019-04-25T19:52:52.297Z,59
2019-04-25T19:57:52.420Z,58.3
2019-04-25T20:02:52.920Z,58.8
2019-04-25T20:07:53.163Z,60.6
2019-04-25T20:12:54.853Z,61.6
2019-04-25T20:17:54.494Z,62.5
2019-04-25T20:22:54.635Z,63.1
2019-04-25T20:27:54.111Z,65.3
2019-04-25T20:32:53.792Z,65.6
2019-04-25T20:37:53.622Z,66.2
2019-04-25T20:42:54.131Z,66.6
2019-04-25T20:47:53.504Z,68.2
2019-04-25T20:52:53.066Z,68.7
2019-04-25T20:57:53.450Z,69.2
2019-04-25T21:02:54.083Z,69.3
2019-04-25T21:07:53.513Z,69.7
2019-04-25T21:12:53.650Z,70
2019-04-25T21:17:54.167Z,70.9
2019-04-25T21:22:54.012Z,70.1
2019-04-25T21:27:54.666Z,68.9
2019-04-25T21:32:55.864Z,69.6
2019-04-25T21:37:55.621Z,71.4
2019-04-25T21:42:56.715Z,70.8
2019-04-25T21:47:57.332Z,71.3
2019-04-25T21:52:57.410Z,71.6
2019-04-25T21:57:58.149Z,72.6
2019-04-25T22:02:58.377Z,73.8
2019-04-25T22:07:58.817Z,74.2
2019-04-25T22:13:16.861Z,74.2
2019-04-25T22:18:15.107Z,74.1
2019-04-25T22:23:14.755Z,75.2
2019-04-25T22:28:14.607Z,75.1
2019-04-25T22:33:14.240Z,76.2
2019-04-25T22:38:14.093Z,77.3
2019-04-25T22:43:13.933Z,78
2019-04-25T22:48:13.963Z,77.6
2019-04-25T22:53:24.453Z,78.2
2019-04-25T22:58:25.057Z,78
2019-04-25T23:03:24.790Z,78.8
2019-04-25T23:08:27.724Z,79.2
2019-04-25T23:13:26.724Z,78.8
2019-04-25T23:18:26.362Z,80
2019-04-25T23:23:25.974Z,80.4
2019-04-25T23:28:25.543Z,79.7
2019-04-25T23:33:25.371Z,80.9
2019-04-25T23:38:25.015Z,79.6
2019-04-25T23:43:24.329Z,80.9
2019-04-25T23:48:24.087Z,82.4
2019-04-25T23:53:23.723Z,81.4
2019-04-25T23:58:23.284Z,81.5
